createdAt,value
2022-08-27T00:01:38.408Z,3.23
2022-08-27T00:04:05.472Z,3.60
2022-08-27T00:06:32.408Z,4.00
2022-08-27T00:08:59.936Z,3.57
2022-08-27T00:11:26.875Z,3.43
2022-08-27T00:13:54.203Z,3.17
2022-08-27T00:16:21.223Z,4.10
2022-08-27T00:18:49.057Z,3.10
2022-08-27T00:21:17.991Z,3.50
2022-08-27T00:23:45.371Z,3.30
2022-08-27T00:26:17.593Z,3.70
2022-08-27T00:28:44.809Z,2.73
2022-08-27T00:31:12.353Z,3.30
2022-08-27T00:33:40.679Z,2.80
2022-08-27T00:36:08.346Z,3.33
2022-08-27T00:38:36.475Z,3.83
2022-08-27T00:41:03.782Z,2.83
2022-08-27T00:43:45.341Z,2.80
2022-08-27T00:46:24.047Z,3.77
2022-08-27T00:48:55.353Z,3.17
2022-08-27T00:51:22.863Z,3.10
2022-08-27T00:53:51.939Z,3.10
2022-08-27T00:56:23.604Z,3.47
2022-08-27T00:58:53.492Z,3.00
2022-08-27T01:01:26.447Z,2.97
2022-08-27T01:03:58.404Z,2.70
2022-08-27T01:06:31.309Z,3.10
2022-08-27T01:09:15.020Z,3.30
2022-08-27T01:11:44.179Z,3.27
2022-08-27T01:14:11.191Z,3.00
2022-08-27T01:16:43.790Z,3.13
2022-08-27T01:19:29.855Z,3.30
2022-08-27T01:22:09.583Z,2.80
2022-08-27T01:24:49.957Z,3.40
2022-08-27T01:27:22.673Z,3.23
2022-08-27T01:29:49.575Z,3.50
2022-08-27T01:32:23.472Z,3.10
2022-08-27T01:34:50.845Z,3.43
2022-08-27T01:37:23.587Z,2.93
2022-08-27T01:39:52.699Z,3.60
2022-08-27T01:42:25.696Z,3.10
2022-08-27T01:45:21.503Z,3.07
2022-08-27T01:47:48.458Z,2.70
2022-08-27T01:50:22.153Z,3.80
2022-08-27T01:52:49.412Z,2.80
2022-08-27T01:55:20.922Z,2.90
2022-08-27T01:57:49.175Z,3.80
2022-08-27T02:00:27.135Z,3.40
2022-08-27T02:02:54.543Z,3.47
2022-08-27T02:05:21.752Z,3.53
2022-08-27T02:07:49.447Z,3.33
2022-08-27T02:10:23.109Z,3.87
2022-08-27T02:12:50.013Z,3.90
2022-08-27T02:15:17.463Z,4.23
2022-08-27T02:17:44.384Z,4.00
2022-08-27T02:20:12.408Z,3.90
2022-08-27T02:22:40.315Z,3.60
2022-08-27T02:25:10.480Z,3.70
2022-08-27T02:27:37.462Z,3.57
2022-08-27T02:30:05.627Z,4.00
2022-08-27T02:32:32.937Z,3.67
2022-08-27T02:35:00.695Z,3.57
2022-08-27T02:37:28.151Z,4.27
2022-08-27T02:39:55.924Z,3.73
2022-08-27T02:42:23.013Z,4.50
2022-08-27T02:44:49.938Z,3.60
2022-08-27T02:47:17.109Z,4.03
2022-08-27T02:49:44.440Z,4.50
2022-08-27T02:52:12.601Z,4.63
2022-08-27T02:54:40.351Z,4.17
2022-08-27T02:57:07.572Z,4.50
2022-08-27T02:59:34.527Z,4.60
2022-08-27T03:02:01.614Z,5.00
2022-08-27T03:04:29.357Z,4.37
2022-08-27T03:06:56.679Z,5.00
2022-08-27T03:09:23.605Z,5.10
2022-08-27T03:11:50.511Z,4.53
2022-08-27T03:14:17.460Z,5.00
2022-08-27T03:16:44.357Z,4.43
2022-08-27T03:19:11.486Z,4.00
2022-08-27T03:21:38.602Z,4.30
2022-08-27T03:24:09.340Z,4.23
2022-08-27T03:26:39.752Z,3.70
2022-08-27T03:29:07.913Z,5.17
2022-08-27T03:31:35.037Z,4.13
2022-08-27T03:34:07.444Z,4.70
2022-08-27T03:36:34.335Z,4.30
2022-08-27T03:39:01.242Z,4.33
2022-08-27T03:41:45.526Z,4.10
2022-08-27T03:44:18.485Z,4.70
2022-08-27T03:46:50.234Z,4.40
2022-08-27T03:49:20.653Z,5.23
2022-08-27T03:51:52.964Z,5.10
2022-08-27T03:54:20.543Z,5.17
2022-08-27T03:56:47.452Z,4.70
2022-08-27T03:59:15.721Z,5.13
2022-08-27T04:01:44.357Z,5.63
2022-08-27T04:04:13.059Z,4.93
2022-08-27T04:06:40.661Z,5.83
2022-08-27T04:09:07.585Z,5.57
2022-08-27T04:11:35.360Z,6.30
2022-08-27T04:14:14.571Z,5.47
2022-08-27T04:16:52.644Z,5.30
2022-08-27T04:19:21.248Z,6.23
2022-08-27T04:21:50.948Z,5.83
2022-08-27T04:24:18.070Z,6.30
2022-08-27T04:26:47.512Z,6.23
2022-08-27T04:29:14.478Z,6.03
2022-08-27T04:31:41.517Z,5.93
2022-08-27T04:34:08.503Z,7.03
2022-08-27T04:36:35.433Z,6.87
2022-08-27T04:39:02.584Z,5.77
2022-08-27T04:41:33.208Z,5.93
2022-08-27T04:44:08.699Z,6.40
2022-08-27T04:46:40.045Z,5.60
2022-08-27T04:49:13.617Z,5.60
2022-08-27T04:51:43.397Z,6.47
2022-08-27T04:54:10.885Z,7.33
2022-08-27T04:56:39.130Z,5.57
2022-08-27T04:59:09.169Z,5.90
2022-08-27T05:01:38.440Z,6.40
2022-08-27T05:04:06.240Z,6.20
2022-08-27T05:06:35.057Z,6.47
2022-08-27T05:09:01.990Z,6.87
2022-08-27T05:11:32.326Z,7.40
2022-08-27T05:13:59.461Z,6.80
2022-08-27T05:16:26.375Z,6.27
2022-08-27T05:18:53.726Z,7.80
2022-08-27T05:21:31.996Z,8.13
2022-08-27T05:24:02.200Z,7.00
2022-08-27T05:26:30.331Z,6.93
2022-08-27T05:29:00.113Z,7.37
2022-08-27T05:31:28.385Z,8.37
2022-08-27T05:33:56.469Z,8.10
2022-08-27T05:36:31.268Z,8.13
2022-08-27T05:39:01.356Z,7.63
2022-08-27T05:41:34.166Z,6.80
2022-08-27T05:44:24.067Z,7.33
2022-08-27T05:46:52.856Z,6.90
2022-08-27T05:49:19.772Z,8.40
2022-08-27T05:51:46.700Z,7.70
2022-08-27T05:54:19.344Z,9.23
2022-08-27T05:56:47.503Z,8.47
2022-08-27T05:59:34.663Z,7.93
2022-08-27T06:02:02.578Z,8.23
2022-08-27T06:04:30.053Z,8.30
2022-08-27T06:06:57.106Z,7.97
2022-08-27T06:09:26.915Z,8.17
2022-08-27T06:11:58.619Z,7.97
2022-08-27T06:14:26.436Z,8.53
2022-08-27T06:16:53.442Z,8.60
2022-08-27T06:19:20.455Z,8.00
2022-08-27T06:22:00.287Z,9.10
2022-08-27T06:24:29.138Z,7.83
2022-08-27T06:26:57.401Z,8.30
2022-08-27T06:29:25.113Z,9.97
2022-08-27T06:31:52.967Z,8.60
2022-08-27T06:34:19.904Z,8.67
2022-08-27T06:36:46.821Z,7.60
2022-08-27T06:39:15.460Z,8.70
2022-08-27T06:41:44.675Z,8.13
2022-08-27T06:44:13.684Z,7.93
2022-08-27T06:46:41.324Z,8.80
2022-08-27T06:49:08.787Z,9.67
2022-08-27T06:51:38.468Z,9.30
2022-08-27T06:54:09.616Z,8.57
2022-08-27T06:56:36.720Z,9.07
2022-08-27T06:59:09.905Z,9.00
2022-08-27T07:01:42.539Z,8.70
2022-08-27T07:04:16.824Z,8.40
2022-08-27T07:06:44.155Z,10.07
2022-08-27T07:09:11.133Z,7.53
2022-08-27T07:11:38.975Z,9.27
2022-08-27T07:14:07.030Z,9.50
2022-08-27T07:16:34.131Z,8.90
2022-08-27T07:19:04.074Z,8.27
2022-08-27T07:21:33.564Z,9.17
2022-08-27T07:24:04.950Z,9.20
2022-08-27T07:26:36.441Z,9.70
2022-08-27T07:29:07.086Z,8.70
2022-08-27T07:31:35.738Z,8.87
2022-08-27T07:34:04.371Z,10.27
2022-08-27T07:36:31.729Z,9.53
2022-08-27T07:39:01.590Z,9.57
2022-08-27T07:41:53.541Z,10.63
2022-08-27T07:44:27.946Z,10.57
2022-08-27T07:46:56.548Z,10.80
2022-08-27T07:49:28.707Z,10.37
2022-08-27T07:51:56.146Z,10.33
2022-08-27T07:54:25.471Z,11.80
2022-08-27T07:56:54.687Z,12.73
2022-08-27T07:59:26.048Z,11.00
2022-08-27T08:01:55.267Z,11.87
2022-08-27T08:04:23.582Z,12.70
2022-08-27T08:06:51.747Z,11.90
2022-08-27T08:09:22.231Z,12.83
2022-08-27T08:11:50.485Z,13.10
2022-08-27T08:14:19.354Z,13.03
2022-08-27T08:16:46.674Z,13.40
2022-08-27T08:19:13.850Z,14.10
2022-08-27T08:21:40.842Z,14.57
2022-08-27T08:24:07.823Z,13.90
2022-08-27T08:26:34.763Z,15.03
2022-08-27T08:29:04.994Z,14.60
2022-08-27T08:31:31.930Z,16.20
2022-08-27T08:33:58.884Z,14.07
2022-08-27T08:36:25.813Z,14.40
2022-08-27T08:38:54.261Z,16.63
2022-08-27T08:41:40.831Z,14.50
2022-08-27T08:44:20.484Z,15.47
2022-08-27T08:46:55.457Z,15.00
2022-08-27T08:49:42.040Z,15.80
2022-08-27T08:52:31.158Z,17.87
2022-08-27T08:55:28.483Z,16.00
2022-08-27T08:58:26.100Z,15.17
2022-08-27T09:01:00.769Z,17.53
2022-08-27T09:03:29.959Z,18.50
2022-08-27T09:06:10.404Z,17.70
2022-08-27T09:08:42.431Z,19.27
2022-08-27T09:11:43.883Z,20.00
2022-08-27T09:14:46.297Z,19.83
2022-08-27T09:17:13.803Z,19.70
2022-08-27T09:19:41.570Z,19.97
2022-08-27T09:22:20.705Z,20.07
2022-08-27T09:25:05.558Z,20.17
2022-08-27T09:27:35.535Z,19.80
2022-08-27T09:30:10.539Z,20.10
2022-08-27T09:32:39.097Z,20.10
2022-08-27T09:35:11.387Z,19.57
2022-08-27T09:37:48.131Z,19.70
2022-08-27T09:40:30.571Z,20.57
2022-08-27T09:43:19.496Z,21.20
2022-08-27T09:45:59.679Z,20.50
2022-08-27T09:48:37.570Z,19.90
2022-08-27T09:51:15.030Z,19.80
2022-08-27T09:54:36.987Z,19.50
2022-08-27T09:57:05.676Z,19.77
2022-08-27T09:59:37.855Z,19.80
2022-08-27T10:02:22.124Z,19.30
2022-08-27T10:04:55.761Z,19.03
2022-08-27T10:07:40.123Z,20.17
2022-08-27T10:10:40.678Z,21.43
2022-08-27T10:13:35.947Z,20.03
2022-08-27T10:16:47.299Z,21.03
2022-08-27T10:20:11.718Z,19.90
2022-08-27T10:23:20.167Z,19.60
2022-08-27T10:26:15.405Z,18.50
2022-08-27T10:28:57.030Z,19.77
2022-08-27T10:31:32.749Z,21.40
2022-08-27T10:34:46.854Z,18.90
2022-08-27T10:37:52.166Z,19.50
2022-08-27T10:41:02.382Z,18.53
2022-08-27T10:44:02.923Z,18.17
2022-08-27T10:46:53.107Z,18.83
2022-08-27T10:50:04.047Z,20.80
2022-08-27T10:52:51.596Z,20.63
2022-08-27T10:55:30.607Z,21.10
2022-08-27T10:58:10.272Z,20.50
2022-08-27T11:00:50.439Z,19.80
2022-08-27T11:03:32.146Z,21.30
2022-08-27T11:06:08.407Z,18.37
2022-08-27T11:08:49.898Z,19.13
2022-08-27T11:14:50.815Z,19.63
2022-08-27T11:17:32.246Z,20.17
2022-08-27T11:20:31.444Z,19.53
2022-08-27T11:23:08.048Z,18.17
2022-08-27T11:26:02.103Z,19.53
2022-08-27T11:28:43.452Z,19.33
2022-08-27T11:31:19.722Z,18.10
2022-08-27T11:34:14.640Z,17.40
2022-08-27T11:37:20.321Z,18.63
2022-08-27T11:40:39.378Z,18.50
2022-08-27T11:43:13.884Z,18.93
2022-08-27T11:46:00.316Z,19.47
2022-08-27T11:48:32.709Z,18.43
2022-08-27T11:51:06.925Z,17.20
2022-08-27T11:53:52.073Z,17.97
2022-08-27T11:56:36.718Z,16.70
2022-08-27T11:59:27.844Z,16.13
2022-08-27T12:02:25.920Z,17.73
2022-08-27T12:05:07.153Z,17.30
2022-08-27T12:07:39.743Z,16.60
2022-08-27T12:10:29.944Z,17.07
2022-08-27T12:13:08.912Z,16.83
2022-08-27T12:16:12.353Z,15.50
2022-08-27T12:19:12.593Z,16.50
2022-08-27T12:22:14.439Z,16.57
2022-08-27T12:24:49.170Z,15.90
2022-08-27T12:27:21.767Z,15.90
2022-08-27T12:29:53.988Z,14.10
2022-08-27T12:32:32.212Z,15.53
2022-08-27T12:35:42.851Z,15.33
2022-08-27T12:38:31.539Z,14.17
2022-08-27T12:41:03.896Z,14.17
2022-08-27T12:43:35.470Z,14.33
2022-08-27T12:46:07.544Z,14.70
2022-08-27T12:48:40.517Z,15.40
2022-08-27T12:51:16.640Z,14.50
2022-08-27T12:54:19.278Z,15.53
2022-08-27T12:57:22.326Z,14.77
2022-08-27T13:00:10.794Z,14.50
2022-08-27T13:03:03.219Z,14.43
2022-08-27T13:05:46.718Z,15.43
2022-08-27T13:08:39.904Z,14.27
2022-08-27T13:11:23.536Z,12.70
2022-08-27T13:13:52.274Z,13.70
2022-08-27T13:16:21.043Z,13.70
2022-08-27T13:18:52.270Z,13.60
2022-08-27T13:21:28.556Z,12.87
2022-08-27T13:24:00.642Z,12.60
2022-08-27T13:26:34.039Z,12.60
2022-08-27T13:29:03.778Z,13.13
2022-08-27T13:31:32.276Z,11.47
2022-08-27T13:34:00.210Z,12.07
2022-08-27T13:36:32.031Z,12.23
2022-08-27T13:39:02.544Z,12.90
2022-08-27T13:41:36.996Z,8.73
2022-08-27T13:44:20.448Z,7.03
2022-08-27T13:47:00.183Z,6.83
2022-08-27T13:49:29.863Z,6.10
2022-08-27T13:52:15.322Z,6.40
2022-08-27T13:54:50.751Z,5.20
2022-08-27T13:57:31.138Z,6.13
2022-08-27T14:00:32.731Z,5.90
2022-08-27T14:03:02.152Z,5.83
2022-08-27T14:05:33.946Z,7.10
2022-08-27T14:08:23.044Z,7.33
2022-08-27T14:11:04.498Z,8.00
2022-08-27T14:13:45.215Z,8.10
2022-08-27T14:16:29.597Z,7.30
2022-08-27T14:19:36.918Z,7.90
2022-08-27T14:22:04.496Z,8.50
2022-08-27T14:24:31.415Z,8.03
2022-08-27T14:27:10.097Z,7.43
2022-08-27T14:29:37.763Z,7.00
2022-08-27T14:32:07.572Z,6.83
2022-08-27T14:34:35.881Z,6.80
2022-08-27T14:37:04.583Z,6.30
2022-08-27T14:39:32.135Z,5.73
2022-08-27T14:41:59.587Z,3.70
2022-08-27T14:44:26.911Z,3.40
2022-08-27T14:46:54.386Z,3.07
2022-08-27T14:49:32.606Z,3.30
2022-08-27T14:51:59.531Z,2.90
2022-08-27T14:54:29.043Z,3.80
2022-08-27T14:57:02.295Z,2.83
2022-08-27T14:59:29.407Z,3.53
2022-08-27T15:01:59.398Z,4.10
2022-08-27T15:04:27.361Z,3.33
2022-08-27T15:06:55.550Z,3.57
2022-08-27T15:09:22.716Z,3.50
2022-08-27T15:11:50.993Z,3.13
2022-08-27T15:14:34.566Z,3.70
2022-08-27T15:17:02.423Z,2.83
2022-08-27T15:19:48.327Z,3.27
2022-08-27T15:22:25.000Z,4.27
2022-08-27T15:24:55.574Z,3.40
2022-08-27T15:27:23.082Z,3.00
2022-08-27T15:29:59.766Z,2.57
2022-08-27T15:32:34.836Z,3.20
2022-08-27T15:35:07.982Z,3.37
2022-08-27T15:37:35.594Z,3.20
2022-08-27T15:40:03.151Z,3.50
2022-08-27T15:42:30.191Z,3.07
2022-08-27T15:44:58.062Z,3.63
2022-08-27T15:47:26.078Z,2.83
2022-08-27T15:49:53.127Z,3.20
2022-08-27T15:52:22.140Z,3.20
2022-08-27T15:54:50.033Z,3.23
2022-08-27T15:57:19.074Z,2.83
2022-08-27T15:59:46.237Z,2.93
2022-08-27T16:02:18.123Z,3.37
2022-08-27T16:04:45.562Z,3.60
2022-08-27T16:07:21.049Z,4.30
2022-08-27T16:09:48.347Z,3.17
2022-08-27T16:12:22.441Z,3.83
2022-08-27T16:14:55.467Z,3.53
2022-08-27T16:17:23.759Z,3.90
2022-08-27T16:19:50.974Z,4.53
2022-08-27T16:22:18.616Z,4.07
2022-08-27T16:24:45.815Z,4.57
2022-08-27T16:27:12.724Z,4.70
2022-08-27T16:29:39.656Z,3.90
2022-08-27T16:32:11.486Z,3.90
2022-08-27T16:34:39.468Z,3.30
2022-08-27T16:37:06.454Z,3.73
2022-08-27T16:39:37.406Z,3.40
2022-08-27T16:42:10.607Z,3.53
2022-08-27T16:44:38.775Z,3.50
2022-08-27T16:47:08.849Z,3.60
2022-08-27T16:49:54.538Z,2.80
2022-08-27T16:52:23.225Z,3.60
2022-08-27T16:54:51.407Z,3.13
2022-08-27T16:57:18.880Z,3.17
2022-08-27T16:59:46.031Z,3.43
2022-08-27T17:02:32.822Z,4.13
2022-08-27T17:05:12.435Z,3.10
2022-08-27T17:07:49.054Z,3.60
2022-08-27T17:10:19.427Z,3.97
2022-08-27T17:12:47.699Z,3.37
2022-08-27T17:15:16.876Z,3.57
2022-08-27T17:17:45.065Z,3.20
2022-08-27T17:20:13.141Z,3.60
2022-08-27T17:22:40.050Z,4.17
2022-08-27T17:25:07.853Z,4.43
2022-08-27T17:27:34.760Z,3.90
2022-08-27T17:30:01.852Z,4.40
2022-08-27T17:32:31.768Z,3.90
2022-08-27T17:35:01.251Z,4.27
2022-08-27T17:37:32.186Z,5.70
2022-08-27T17:39:59.145Z,5.40
2022-08-27T17:42:26.496Z,5.63
2022-08-27T17:44:53.445Z,5.77
2022-08-27T17:47:20.737Z,5.43
2022-08-27T17:49:47.658Z,5.90
2022-08-27T17:52:16.291Z,6.83
2022-08-27T17:54:51.577Z,6.10
2022-08-27T17:57:24.237Z,6.60
2022-08-27T17:59:53.562Z,7.67
2022-08-27T18:02:45.204Z,7.47
2022-08-27T18:05:13.397Z,6.93
2022-08-27T18:07:42.253Z,6.43
2022-08-27T18:10:12.418Z,7.80
2022-08-27T18:12:40.505Z,7.63
2022-08-27T18:15:10.476Z,6.97
2022-08-27T18:17:42.590Z,8.20
2022-08-27T18:20:13.557Z,9.37
2022-08-27T18:22:43.358Z,9.47
2022-08-27T18:25:17.873Z,9.90
2022-08-27T18:27:47.167Z,8.53
2022-08-27T18:30:14.364Z,10.77
2022-08-27T18:32:41.620Z,10.60
2022-08-27T18:35:27.656Z,9.77
2022-08-27T18:37:55.223Z,10.13
2022-08-27T18:40:26.293Z,10.37
2022-08-27T18:42:53.694Z,9.97
2022-08-27T18:45:28.593Z,10.53
2022-08-27T18:47:59.601Z,9.40
2022-08-27T18:50:27.397Z,10.77
2022-08-27T18:52:56.666Z,10.67
2022-08-27T18:55:28.016Z,10.70
2022-08-27T18:57:54.961Z,9.83
2022-08-27T19:00:22.531Z,9.57
2022-08-27T19:02:52.722Z,9.70
2022-08-27T19:05:26.640Z,9.70
2022-08-27T19:07:54.317Z,9.80
2022-08-27T19:10:21.519Z,10.30
2022-08-27T19:12:48.662Z,10.70
2022-08-27T19:15:16.145Z,10.80
2022-08-27T19:17:48.535Z,11.40
2022-08-27T19:20:17.414Z,10.83
2022-08-27T19:22:45.700Z,11.43
2022-08-27T19:25:13.081Z,10.87
2022-08-27T19:27:40.429Z,10.90
2022-08-27T19:30:08.547Z,11.20
2022-08-27T19:32:35.655Z,9.93
2022-08-27T19:35:04.868Z,10.73
2022-08-27T19:37:46.360Z,10.83
2022-08-27T19:40:21.827Z,11.00
2022-08-27T19:42:49.190Z,10.53
2022-08-27T19:45:16.158Z,10.13
2022-08-27T19:47:51.172Z,11.20
2022-08-27T19:50:18.231Z,11.33
2022-08-27T19:52:47.362Z,11.30
2022-08-27T19:55:14.914Z,12.10
2022-08-27T19:57:43.652Z,12.27
2022-08-27T20:00:14.334Z,10.87
2022-08-27T20:02:41.408Z,13.47
2022-08-27T20:05:23.246Z,10.43
2022-08-27T20:07:52.781Z,10.43
2022-08-27T20:10:25.755Z,11.70
2022-08-27T20:12:58.429Z,11.33
2022-08-27T20:15:26.003Z,11.70
2022-08-27T20:17:54.083Z,10.83
2022-08-27T20:20:24.406Z,11.50
2022-08-27T20:22:52.778Z,11.40
2022-08-27T20:25:19.877Z,11.20
2022-08-27T20:27:47.670Z,11.97
2022-08-27T20:30:18.101Z,12.07
2022-08-27T20:32:46.715Z,11.37
2022-08-27T20:35:15.183Z,11.87
2022-08-27T20:37:42.737Z,11.23
2022-08-27T20:40:31.383Z,11.33
2022-08-27T20:43:01.178Z,10.80
2022-08-27T20:45:30.225Z,10.83
2022-08-27T20:47:59.351Z,11.70
2022-08-27T20:50:26.856Z,11.20
2022-08-27T20:52:53.882Z,11.50
2022-08-27T20:55:22.730Z,11.80
2022-08-27T20:58:09.155Z,11.70
2022-08-27T21:00:40.892Z,11.80
2022-08-27T21:03:10.501Z,11.27
2022-08-27T21:05:37.934Z,11.40
2022-08-27T21:08:06.468Z,11.60
2022-08-27T21:10:34.835Z,11.30
2022-08-27T21:13:04.807Z,10.80
2022-08-27T21:15:32.701Z,11.83
2022-08-27T21:17:59.899Z,11.13
2022-08-27T21:20:26.983Z,10.13
2022-08-27T21:22:56.049Z,11.83
2022-08-27T21:25:25.123Z,10.90
2022-08-27T21:27:53.188Z,10.37
2022-08-27T21:30:21.688Z,11.40
2022-08-27T21:32:48.817Z,11.17
2022-08-27T21:35:15.705Z,10.23
2022-08-27T21:37:43.681Z,11.20
2022-08-27T21:40:11.100Z,10.17
2022-08-27T21:42:38.063Z,10.13
2022-08-27T21:45:05.762Z,10.40
2022-08-27T21:47:32.659Z,10.70
2022-08-27T21:49:59.557Z,11.20
2022-08-27T21:52:26.452Z,10.80
2022-08-27T21:54:53.350Z,9.43
2022-08-27T21:57:20.277Z,10.47
2022-08-27T21:59:49.158Z,10.33
2022-08-27T22:02:40.258Z,10.90
2022-08-27T22:05:08.992Z,10.10
2022-08-27T22:07:36.131Z,10.47
2022-08-27T22:10:04.000Z,10.17
2022-08-27T22:12:30.900Z,9.80
2022-08-27T22:14:57.780Z,10.27
2022-08-27T22:17:24.701Z,9.30
2022-08-27T22:19:51.591Z,11.40
2022-08-27T22:22:18.512Z,10.47
2022-08-27T22:24:45.472Z,10.33
2022-08-27T22:27:12.499Z,10.20
2022-08-27T22:29:39.458Z,9.80
2022-08-27T22:32:09.525Z,11.53
2022-08-27T22:34:36.657Z,10.77
2022-08-27T22:37:04.399Z,11.33
2022-08-27T22:39:31.368Z,11.00
2022-08-27T22:41:58.486Z,12.60
2022-08-27T22:44:29.213Z,12.00
2022-08-27T22:46:56.806Z,9.43
2022-08-27T22:49:23.856Z,10.73
2022-08-27T22:51:50.852Z,10.00
2022-08-27T22:54:18.820Z,10.80
2022-08-27T22:56:45.744Z,10.87
2022-08-27T22:59:12.842Z,10.47
2022-08-27T23:01:39.958Z,9.37
2022-08-27T23:04:07.045Z,10.30
2022-08-27T23:06:34.385Z,10.50
2022-08-27T23:09:01.815Z,10.40
2022-08-27T23:11:31.845Z,10.33
2022-08-27T23:13:59.943Z,10.50
2022-08-27T23:16:27.669Z,10.10
2022-08-27T23:18:54.722Z,10.77
2022-08-27T23:21:21.706Z,11.40
2022-08-27T23:23:48.904Z,11.67
2022-08-27T23:26:34.771Z,11.30
2022-08-27T23:29:01.809Z,11.53
2022-08-27T23:31:28.772Z,11.00
2022-08-27T23:33:56.027Z,10.57
2022-08-27T23:36:23.622Z,11.00
2022-08-27T23:38:50.537Z,10.90
2022-08-27T23:41:17.459Z,10.40
2022-08-27T23:43:45.529Z,11.00
2022-08-27T23:46:13.146Z,11.40
2022-08-27T23:48:40.321Z,9.97
2022-08-27T23:51:09.251Z,11.47
2022-08-27T23:53:37.743Z,11.43
2022-08-27T23:56:05.249Z,10.93
2022-08-27T23:58:32.700Z,11.13
